sensor_id;sensor_type;location;lat;lon;timestamp;pressure;altitude;pressure_sealevel;temperature;humidity
24788;BME280;12883;52.662;5.196;2023-04-22T00:01:48;100822.34;;;10.25;100.00
24788;BME280;12883;52.662;5.196;2023-04-22T00:04:14;100880.03;;;10.50;100.00
24788;BME280;12883;52.662;5.196;2023-04-22T00:06:39;100856.47;;;10.34;100.00
24788;BME280;12883;52.662;5.196;2023-04-22T00:09:05;100755.84;;;9.86;100.00
24788;BME280;12883;52.662;5.196;2023-04-22T00:11:30;100854.13;;;10.18;100.00
24788;BME280;12883;52.662;5.196;2023-04-22T00:13:55;100826.16;;;10.16;100.00
24788;BME280;12883;52.662;5.196;2023-04-22T00:16:21;100773.97;;;9.82;100.00
24788;BME280;12883;52.662;5.196;2023-04-22T00:18:47;100755.38;;;9.76;100.00
24788;BME280;12883;52.662;5.196;2023-04-22T00:21:12;100784.69;;;9.68;100.00
24788;BME280;12883;52.662;5.196;2023-04-22T00:23:37;100847.44;;;10.22;100.00
24788;BME280;12883;52.662;5.196;2023-04-22T00:26:03;100776.00;;;9.80;100.00
24788;BME280;12883;52.662;5.196;2023-04-22T00:28:28;100703.44;;;9.48;100.00
24788;BME280;12883;52.662;5.196;2023-04-22T00:30:54;100742.00;;;9.56;100.00
24788;BME280;12883;52.662;5.196;2023-04-22T00:33:19;100863.38;;;10.29;100.00
24788;BME280;12883;52.662;5.196;2023-04-22T00:35:47;100810.78;;;9.71;100.00
24788;BME280;12883;52.662;5.196;2023-04-22T00:38:13;100831.03;;;10.06;100.00
24788;BME280;12883;52.662;5.196;2023-04-22T00:40:38;100811.25;;;10.08;100.00
24788;BME280;12883;52.662;5.196;2023-04-22T00:43:04;100770.03;;;9.72;100.00
24788;BME280;12883;52.662;5.196;2023-04-22T00:45:30;100833.16;;;10.23;100.00
24788;BME280;12883;52.662;5.196;2023-04-22T00:47:55;100768.78;;;9.68;100.00
24788;BME280;12883;52.662;5.196;2023-04-22T00:50:21;100816.88;;;9.99;100.00
24788;BME280;12883;52.662;5.196;2023-04-22T00:52:46;100857.25;;;10.28;100.00
24788;BME280;12883;52.662;5.196;2023-04-22T00:55:12;100672.00;;;9.04;100.00
24788;BME280;12883;52.662;5.196;2023-04-22T00:57:38;100780.25;;;9.75;100.00
24788;BME280;12883;52.662;5.196;2023-04-22T01:00:04;100850.25;;;10.14;100.00
24788;BME280;12883;52.662;5.196;2023-04-22T01:02:30;100805.16;;;9.80;100.00
24788;BME280;12883;52.662;5.196;2023-04-22T01:04:56;100794.16;;;9.83;100.00
24788;BME280;12883;52.662;5.196;2023-04-22T01:07:22;100859.16;;;10.07;100.00
24788;BME280;12883;52.662;5.196;2023-04-22T01:09:47;100760.13;;;9.53;100.00
24788;BME280;12883;52.662;5.196;2023-04-22T01:12:13;100758.25;;;9.47;100.00
24788;BME280;12883;52.662;5.196;2023-04-22T01:14:39;100781.13;;;9.54;100.00
24788;BME280;12883;52.662;5.196;2023-04-22T01:17:04;100717.16;;;9.24;100.00
24788;BME280;12883;52.662;5.196;2023-04-22T01:19:31;100846.13;;;9.84;100.00
24788;BME280;12883;52.662;5.196;2023-04-22T01:21:58;100813.84;;;9.68;100.00
24788;BME280;12883;52.662;5.196;2023-04-22T01:24:26;100760.50;;;9.50;100.00
24788;BME280;12883;52.662;5.196;2023-04-22T01:26:51;100793.94;;;9.51;100.00
24788;BME280;12883;52.662;5.196;2023-04-22T01:29:17;100630.47;;;8.77;100.00
24788;BME280;12883;52.662;5.196;2023-04-22T01:31:42;100841.13;;;9.96;100.00
24788;BME280;12883;52.662;5.196;2023-04-22T01:34:08;100810.34;;;9.67;100.00
24788;BME280;12883;52.662;5.196;2023-04-22T01:36:33;100520.91;;;7.89;100.00
24788;BME280;12883;52.662;5.196;2023-04-22T01:38:59;100593.78;;;8.19;100.00
24788;BME280;12883;52.662;5.196;2023-04-22T01:41:25;100538.00;;;7.93;100.00
24788;BME280;12883;52.662;5.196;2023-04-22T01:43:56;100782.47;;;9.44;100.00
24788;BME280;12883;52.662;5.196;2023-04-22T01:46:22;100780.91;;;9.29;100.00
24788;BME280;12883;52.662;5.196;2023-04-22T01:48:47;100777.47;;;9.28;100.00
24788;BME280;12883;52.662;5.196;2023-04-22T01:51:18;100847.22;;;9.90;100.00
24788;BME280;12883;52.662;5.196;2023-04-22T01:53:50;100771.94;;;9.51;100.00
24788;BME280;12883;52.662;5.196;2023-04-22T01:56:16;100848.84;;;9.91;100.00
24788;BME280;12883;52.662;5.196;2023-04-22T01:58:42;100744.09;;;9.34;100.00
24788;BME280;12883;52.662;5.196;2023-04-22T02:01:08;100741.63;;;9.32;100.00
24788;BME280;12883;52.662;5.196;2023-04-22T02:03:34;100506.44;;;7.85;100.00
24788;BME280;12883;52.662;5.196;2023-04-22T02:06:00;100765.59;;;9.24;100.00
24788;BME280;12883;52.662;5.196;2023-04-22T02:08:25;100812.97;;;9.61;100.00
24788;BME280;12883;52.662;5.196;2023-04-22T02:10:50;100686.78;;;8.92;100.00
24788;BME280;12883;52.662;5.196;2023-04-22T02:13:16;100758.38;;;9.39;100.00
24788;BME280;12883;52.662;5.196;2023-04-22T02:15:41;100807.66;;;9.34;100.00
24788;BME280;12883;52.662;5.196;2023-04-22T02:18:07;100750.47;;;9.18;100.00
24788;BME280;12883;52.662;5.196;2023-04-22T02:20:34;100857.72;;;9.77;100.00
24788;BME280;12883;52.662;5.196;2023-04-22T02:23:00;100759.28;;;9.25;100.00
24788;BME280;12883;52.662;5.196;2023-04-22T02:25:25;100737.78;;;9.07;100.00
24788;BME280;12883;52.662;5.196;2023-04-22T02:27:51;100760.06;;;9.19;100.00
24788;BME280;12883;52.662;5.196;2023-04-22T02:30:17;100815.66;;;9.40;100.00
24788;BME280;12883;52.662;5.196;2023-04-22T02:32:42;100801.78;;;9.38;100.00
24788;BME280;12883;52.662;5.196;2023-04-22T02:35:09;100835.19;;;9.39;100.00
24788;BME280;12883;52.662;5.196;2023-04-22T02:37:35;100807.38;;;9.29;100.00
24788;BME280;12883;52.662;5.196;2023-04-22T02:40:00;100824.09;;;9.29;100.00
24788;BME280;12883;52.662;5.196;2023-04-22T02:42:26;100616.00;;;8.10;100.00
24788;BME280;12883;52.662;5.196;2023-04-22T02:44:51;100791.47;;;9.01;100.00
24788;BME280;12883;52.662;5.196;2023-04-22T02:47:16;100784.84;;;9.12;100.00
24788;BME280;12883;52.662;5.196;2023-04-22T02:49:42;100760.88;;;8.92;100.00
24788;BME280;12883;52.662;5.196;2023-04-22T02:52:07;100774.44;;;9.10;100.00
24788;BME280;12883;52.662;5.196;2023-04-22T02:54:32;100799.09;;;9.32;100.00
24788;BME280;12883;52.662;5.196;2023-04-22T02:56:58;100801.22;;;9.22;100.00
24788;BME280;12883;52.662;5.196;2023-04-22T02:59:24;100831.16;;;9.43;100.00
24788;BME280;12883;52.662;5.196;2023-04-22T03:01:49;100759.63;;;8.95;100.00
24788;BME280;12883;52.662;5.196;2023-04-22T03:04:14;100745.34;;;8.89;100.00
24788;BME280;12883;52.662;5.196;2023-04-22T03:06:40;100740.69;;;8.91;100.00
24788;BME280;12883;52.662;5.196;2023-04-22T03:09:05;100792.84;;;9.18;100.00
24788;BME280;12883;52.662;5.196;2023-04-22T03:11:30;100832.16;;;9.42;100.00
24788;BME280;12883;52.662;5.196;2023-04-22T03:13:56;100540.56;;;7.66;100.00
24788;BME280;12883;52.662;5.196;2023-04-22T03:16:24;100575.84;;;7.79;100.00
24788;BME280;12883;52.662;5.196;2023-04-22T03:18:50;100604.00;;;7.72;100.00
24788;BME280;12883;52.662;5.196;2023-04-22T03:21:15;100712.25;;;8.72;100.00
24788;BME280;12883;52.662;5.196;2023-04-22T03:23:40;100742.44;;;8.84;100.00
24788;BME280;12883;52.662;5.196;2023-04-22T03:26:06;100731.25;;;8.82;100.00
24788;BME280;12883;52.662;5.196;2023-04-22T03:28:31;100571.84;;;7.83;100.00
24788;BME280;12883;52.662;5.196;2023-04-22T03:30:57;100804.19;;;9.12;100.00
24788;BME280;12883;52.662;5.196;2023-04-22T03:33:22;100747.63;;;8.92;100.00
24788;BME280;12883;52.662;5.196;2023-04-22T03:35:48;100723.44;;;8.74;100.00
24788;BME280;12883;52.662;5.196;2023-04-22T03:38:14;100702.03;;;8.48;100.00
24788;BME280;12883;52.662;5.196;2023-04-22T03:40:41;100785.44;;;8.86;100.00
24788;BME280;12883;52.662;5.196;2023-04-22T03:43:06;100780.28;;;8.78;100.00
24788;BME280;12883;52.662;5.196;2023-04-22T03:45:31;100730.63;;;8.59;100.00
24788;BME280;12883;52.662;5.196;2023-04-22T03:47:57;100627.03;;;7.78;100.00
24788;BME280;12883;52.662;5.196;2023-04-22T03:50:24;100791.78;;;8.92;100.00
24788;BME280;12883;52.662;5.196;2023-04-22T03:52:49;100773.69;;;8.74;100.00
24788;BME280;12883;52.662;5.196;2023-04-22T03:55:15;100723.19;;;8.48;100.00
24788;BME280;12883;52.662;5.196;2023-04-22T03:57:40;100787.19;;;8.79;100.00
24788;BME280;12883;52.662;5.196;2023-04-22T04:00:06;100753.53;;;8.52;100.00
24788;BME280;12883;52.662;5.196;2023-04-22T04:02:31;100727.63;;;8.27;100.00
24788;BME280;12883;52.662;5.196;2023-04-22T04:04:57;100706.47;;;8.12;100.00
24788;BME280;12883;52.662;5.196;2023-04-22T04:07:22;100745.47;;;8.25;100.00
24788;BME280;12883;52.662;5.196;2023-04-22T04:09:47;100781.53;;;8.47;100.00
24788;BME280;12883;52.662;5.196;2023-04-22T04:12:13;100640.63;;;7.75;100.00
24788;BME280;12883;52.662;5.196;2023-04-22T04:14:38;100760.59;;;8.31;100.00
24788;BME280;12883;52.662;5.196;2023-04-22T04:17:03;100720.63;;;8.19;100.00
24788;BME280;12883;52.662;5.196;2023-04-22T04:19:29;100645.25;;;7.73;100.00
24788;BME280;12883;52.662;5.196;2023-04-22T04:21:54;100685.19;;;7.99;100.00
24788;BME280;12883;52.662;5.196;2023-04-22T04:24:21;100781.06;;;8.43;100.00
24788;BME280;12883;52.662;5.196;2023-04-22T04:26:46;100708.22;;;8.05;100.00
24788;BME280;12883;52.662;5.196;2023-04-22T04:29:13;100671.25;;;7.91;100.00
24788;BME280;12883;52.662;5.196;2023-04-22T04:31:38;100686.66;;;8.02;100.00
24788;BME280;12883;52.662;5.196;2023-04-22T04:34:03;100686.47;;;8.03;100.00
24788;BME280;12883;52.662;5.196;2023-04-22T04:36:29;100772.06;;;8.38;100.00
24788;BME280;12883;52.662;5.196;2023-04-22T04:38:56;100767.66;;;8.59;100.00
24788;BME280;12883;52.662;5.196;2023-04-22T04:41:23;100757.03;;;8.38;100.00
24788;BME280;12883;52.662;5.196;2023-04-22T04:43:51;100765.59;;;8.40;100.00
24788;BME280;12883;52.662;5.196;2023-04-22T04:46:16;100732.53;;;8.30;100.00
24788;BME280;12883;52.662;5.196;2023-04-22T04:48:42;100636.91;;;7.55;100.00
24788;BME280;12883;52.662;5.196;2023-04-22T04:51:10;100682.09;;;7.96;100.00
24788;BME280;12883;52.662;5.196;2023-04-22T04:53:35;100661.94;;;7.59;100.00
24788;BME280;12883;52.662;5.196;2023-04-22T04:56:01;100697.34;;;7.79;100.00
24788;BME280;12883;52.662;5.196;2023-04-22T04:58:26;100626.00;;;7.29;100.00
24788;BME280;12883;52.662;5.196;2023-04-22T05:00:52;100742.59;;;8.05;100.00
24788;BME280;12883;52.662;5.196;2023-04-22T05:03:17;100765.16;;;8.37;100.00
24788;BME280;12883;52.662;5.196;2023-04-22T05:05:42;100733.97;;;8.18;100.00
24788;BME280;12883;52.662;5.196;2023-04-22T05:08:10;100791.41;;;8.38;100.00
24788;BME280;12883;52.662;5.196;2023-04-22T05:10:35;100654.84;;;7.74;100.00
24788;BME280;12883;52.662;5.196;2023-04-22T05:13:01;100783.94;;;8.42;100.00
24788;BME280;12883;52.662;5.196;2023-04-22T05:15:26;100730.91;;;8.29;100.00
24788;BME280;12883;52.662;5.196;2023-04-22T05:17:52;100546.78;;;7.08;100.00
24788;BME280;12883;52.662;5.196;2023-04-22T05:20:18;100676.47;;;8.34;100.00
24788;BME280;12883;52.662;5.196;2023-04-22T05:22:43;100716.63;;;8.44;100.00
24788;BME280;12883;52.662;5.196;2023-04-22T05:25:10;100570.69;;;7.92;100.00
24788;BME280;12883;52.662;5.196;2023-04-22T05:27:35;100731.13;;;8.90;100.00
24788;BME280;12883;52.662;5.196;2023-04-22T05:30:01;100631.78;;;8.39;100.00
24788;BME280;12883;52.662;5.196;2023-04-22T05:32:26;100446.81;;;7.34;100.00
24788;BME280;12883;52.662;5.196;2023-04-22T05:34:51;100667.28;;;8.72;100.00
24788;BME280;12883;52.662;5.196;2023-04-22T05:37:17;100734.94;;;9.09;100.00
24788;BME280;12883;52.662;5.196;2023-04-22T05:39:42;100453.91;;;7.34;100.00
24788;BME280;12883;52.662;5.196;2023-04-22T05:42:08;100450.03;;;7.51;100.00
24788;BME280;12883;52.662;5.196;2023-04-22T05:44:33;100684.00;;;9.00;100.00
24788;BME280;12883;52.662;5.196;2023-04-22T05:46:58;100755.22;;;9.50;100.00
24788;BME280;12883;52.662;5.196;2023-04-22T05:49:24;100550.19;;;8.15;100.00
24788;BME280;12883;52.662;5.196;2023-04-22T05:51:49;100714.88;;;9.21;100.00
24788;BME280;12883;52.662;5.196;2023-04-22T05:54:15;100676.09;;;9.07;100.00
24788;BME280;12883;52.662;5.196;2023-04-22T05:56:40;100678.78;;;9.13;100.00
24788;BME280;12883;52.662;5.196;2023-04-22T05:59:05;100682.06;;;9.15;100.00
24788;BME280;12883;52.662;5.196;2023-04-22T06:01:31;100793.94;;;9.51;100.00
24788;BME280;12883;52.662;5.196;2023-04-22T06:03:56;100767.63;;;9.77;100.00
24788;BME280;12883;52.662;5.196;2023-04-22T06:06:22;100561.38;;;8.59;100.00
24788;BME280;12883;52.662;5.196;2023-04-22T06:08:47;100756.94;;;9.64;100.00
24788;BME280;12883;52.662;5.196;2023-04-22T06:11:13;100749.44;;;9.74;100.00
24788;BME280;12883;52.662;5.196;2023-04-22T06:13:38;100767.81;;;10.03;100.00
24788;BME280;12883;52.662;5.196;2023-04-22T06:16:05;100723.59;;;9.76;100.00
24788;BME280;12883;52.662;5.196;2023-04-22T06:18:30;100728.91;;;9.76;100.00
24788;BME280;12883;52.662;5.196;2023-04-22T06:20:56;100777.94;;;9.99;100.00
24788;BME280;12883;52.662;5.196;2023-04-22T06:23:22;100750.88;;;10.04;100.00
24788;BME280;12883;52.662;5.196;2023-04-22T06:25:47;100678.75;;;9.74;100.00
24788;BME280;12883;52.662;5.196;2023-04-22T06:28:12;100761.81;;;10.35;100.00
24788;BME280;12883;52.662;5.196;2023-04-22T06:30:38;100758.97;;;10.36;100.00
24788;BME280;12883;52.662;5.196;2023-04-22T06:33:03;100685.56;;;9.96;100.00
24788;BME280;12883;52.662;5.196;2023-04-22T06:35:29;100659.25;;;9.95;100.00
24788;BME280;12883;52.662;5.196;2023-04-22T06:37:54;100695.03;;;10.12;100.00
24788;BME280;12883;52.662;5.196;2023-04-22T06:40:20;100665.38;;;9.95;100.00
24788;BME280;12883;52.662;5.196;2023-04-22T06:42:45;100694.25;;;10.18;100.00
24788;BME280;12883;52.662;5.196;2023-04-22T06:45:11;100597.56;;;9.60;100.00
24788;BME280;12883;52.662;5.196;2023-04-22T06:47:40;100723.03;;;10.34;100.00
24788;BME280;12883;52.662;5.196;2023-04-22T06:50:07;100710.41;;;10.49;100.00
24788;BME280;12883;52.662;5.196;2023-04-22T06:52:33;100602.72;;;9.75;100.00
24788;BME280;12883;52.662;5.196;2023-04-22T06:54:58;100609.78;;;10.08;100.00
24788;BME280;12883;52.662;5.196;2023-04-22T06:57:23;100689.22;;;10.62;100.00
24788;BME280;12883;52.662;5.196;2023-04-22T06:59:49;100649.00;;;10.39;100.00
24788;BME280;12883;52.662;5.196;2023-04-22T07:02:15;100664.50;;;10.42;100.00
24788;BME280;12883;52.662;5.196;2023-04-22T07:04:40;100748.88;;;10.92;100.00
24788;BME280;12883;52.662;5.196;2023-04-22T07:07:05;100708.00;;;10.73;100.00
24788;BME280;12883;52.662;5.196;2023-04-22T07:09:31;100547.72;;;9.90;100.00
24788;BME280;12883;52.662;5.196;2023-04-22T07:11:56;100725.78;;;10.79;100.00
24788;BME280;12883;52.662;5.196;2023-04-22T07:14:24;100721.09;;;11.07;100.00
24788;BME280;12883;52.662;5.196;2023-04-22T07:16:49;100680.88;;;10.91;100.00
24788;BME280;12883;52.662;5.196;2023-04-22T07:19:15;100702.53;;;11.14;100.00
24788;BME280;12883;52.662;5.196;2023-04-22T07:21:40;100668.81;;;10.95;100.00
24788;BME280;12883;52.662;5.196;2023-04-22T07:24:06;100607.97;;;10.67;100.00
24788;BME280;12883;52.662;5.196;2023-04-22T07:26:35;100719.28;;;11.08;100.00
24788;BME280;12883;52.662;5.196;2023-04-22T07:29:02;100626.56;;;10.74;100.00
24788;BME280;12883;52.662;5.196;2023-04-22T07:31:28;100652.25;;;11.19;100.00
24788;BME280;12883;52.662;5.196;2023-04-22T07:33:53;100682.44;;;11.57;100.00
24788;BME280;12883;52.662;5.196;2023-04-22T07:36:19;100698.59;;;11.42;100.00
24788;BME280;12883;52.662;5.196;2023-04-22T07:38:44;100618.56;;;11.06;100.00
24788;BME280;12883;52.662;5.196;2023-04-22T07:41:09;100613.69;;;10.97;100.00
24788;BME280;12883;52.662;5.196;2023-04-22T07:43:35;100624.69;;;11.20;100.00
24788;BME280;12883;52.662;5.196;2023-04-22T07:46:00;100537.78;;;10.76;100.00
24788;BME280;12883;52.662;5.196;2023-04-22T07:48:26;100608.31;;;11.23;100.00
24788;BME280;12883;52.662;5.196;2023-04-22T07:50:51;100601.56;;;11.33;100.00
24788;BME280;12883;52.662;5.196;2023-04-22T07:53:16;100700.13;;;11.95;100.00
24788;BME280;12883;52.662;5.196;2023-04-22T07:55:42;100648.09;;;11.62;100.00
24788;BME280;12883;52.662;5.196;2023-04-22T07:58:07;100581.34;;;11.26;100.00
24788;BME280;12883;52.662;5.196;2023-04-22T08:00:33;100661.41;;;12.06;100.00
24788;BME280;12883;52.662;5.196;2023-04-22T08:02:59;100534.31;;;11.33;100.00
24788;BME280;12883;52.662;5.196;2023-04-22T08:05:24;100607.03;;;11.45;100.00
24788;BME280;12883;52.662;5.196;2023-04-22T08:07:50;100693.06;;;12.14;100.00
24788;BME280;12883;52.662;5.196;2023-04-22T08:10:15;100663.63;;;12.09;100.00
24788;BME280;12883;52.662;5.196;2023-04-22T08:12:40;100626.31;;;11.91;100.00
24788;BME280;12883;52.662;5.196;2023-04-22T08:15:06;100660.75;;;12.17;100.00
24788;BME280;12883;52.662;5.196;2023-04-22T08:17:32;100663.56;;;12.22;100.00
24788;BME280;12883;52.662;5.196;2023-04-22T08:19:57;100583.13;;;11.95;100.00
24788;BME280;12883;52.662;5.196;2023-04-22T08:22:22;100652.94;;;12.53;100.00
24788;BME280;12883;52.662;5.196;2023-04-22T08:24:48;100625.47;;;12.28;100.00
24788;BME280;12883;52.662;5.196;2023-04-22T08:27:13;100705.13;;;12.85;100.00
24788;BME280;12883;52.662;5.196;2023-04-22T08:29:39;100558.53;;;12.00;100.00
24788;BME280;12883;52.662;5.196;2023-04-22T08:32:04;100722.44;;;13.00;100.00
24788;BME280;12883;52.662;5.196;2023-04-22T08:34:30;100671.81;;;12.76;100.00
24788;BME280;12883;52.662;5.196;2023-04-22T08:36:55;100605.13;;;12.64;100.00
24788;BME280;12883;52.662;5.196;2023-04-22T08:39:20;100718.47;;;13.34;100.00
24788;BME280;12883;52.662;5.196;2023-04-22T08:41:48;100695.63;;;13.20;100.00
24788;BME280;12883;52.662;5.196;2023-04-22T08:44:15;100587.84;;;12.98;100.00
24788;BME280;12883;52.662;5.196;2023-04-22T08:46:42;100683.25;;;13.50;100.00
24788;BME280;12883;52.662;5.196;2023-04-22T08:49:12;100694.66;;;13.75;100.00
24788;BME280;12883;52.662;5.196;2023-04-22T08:51:39;100616.09;;;13.41;100.00
24788;BME280;12883;52.662;5.196;2023-04-22T08:54:05;100525.44;;;12.87;100.00
24788;BME280;12883;52.662;5.196;2023-04-22T08:56:30;100687.78;;;13.67;100.00
24788;BME280;12883;52.662;5.196;2023-04-22T08:58:56;100617.03;;;13.47;100.00
24788;BME280;12883;52.662;5.196;2023-04-22T09:01:23;100672.66;;;13.61;100.00
24788;BME280;12883;52.662;5.196;2023-04-22T09:03:49;100510.72;;;12.85;100.00
24788;BME280;12883;52.662;5.196;2023-04-22T09:06:16;100667.84;;;13.88;100.00
24788;BME280;12883;52.662;5.196;2023-04-22T09:08:43;100664.75;;;13.91;100.00
24788;BME280;12883;52.662;5.196;2023-04-22T09:11:09;100593.56;;;13.37;100.00
24788;BME280;12883;52.662;5.196;2023-04-22T09:13:36;100630.81;;;13.62;100.00
24788;BME280;12883;52.662;5.196;2023-04-22T09:16:01;100561.97;;;13.05;100.00
24788;BME280;12883;52.662;5.196;2023-04-22T09:18:27;100614.91;;;13.55;100.00
24788;BME280;12883;52.662;5.196;2023-04-22T09:20:54;100662.81;;;13.62;100.00
24788;BME280;12883;52.662;5.196;2023-04-22T09:23:21;100650.81;;;13.71;100.00
24788;BME280;12883;52.662;5.196;2023-04-22T09:25:46;100697.47;;;13.98;100.00
24788;BME280;12883;52.662;5.196;2023-04-22T09:28:16;100688.22;;;14.00;100.00
24788;BME280;12883;52.662;5.196;2023-04-22T09:30:44;100658.25;;;13.69;100.00
24788;BME280;12883;52.662;5.196;2023-04-22T09:33:10;100529.31;;;12.91;100.00
24788;BME280;12883;52.662;5.196;2023-04-22T09:35:39;100700.41;;;14.08;100.00
24788;BME280;12883;52.662;5.196;2023-04-22T09:38:07;100684.41;;;14.08;100.00
24788;BME280;12883;52.662;5.196;2023-04-22T09:40:34;100677.34;;;14.13;100.00
24788;BME280;12883;52.662;5.196;2023-04-22T09:43:04;100507.16;;;12.91;100.00
24788;BME280;12883;52.662;5.196;2023-04-22T09:45:32;100678.03;;;14.09;100.00
24788;BME280;12883;52.662;5.196;2023-04-22T09:48:14;100678.13;;;14.20;100.00
24788;BME280;12883;52.662;5.196;2023-04-22T09:50:43;100468.09;;;12.85;100.00
24788;BME280;12883;52.662;5.196;2023-04-22T09:53:14;100670.13;;;14.02;100.00
24788;BME280;12883;52.662;5.196;2023-04-22T09:55:48;100664.19;;;14.18;100.00
24788;BME280;12883;52.662;5.196;2023-04-22T09:58:16;100626.25;;;13.98;100.00
24788;BME280;12883;52.662;5.196;2023-04-22T10:00:51;100677.53;;;14.48;100.00
24788;BME280;12883;52.662;5.196;2023-04-22T10:03:17;100667.03;;;14.64;100.00
24788;BME280;12883;52.662;5.196;2023-04-22T10:05:43;100605.16;;;13.97;100.00
24788;BME280;12883;52.662;5.196;2023-04-22T10:08:11;100409.69;;;12.72;100.00
24788;BME280;12883;52.662;5.196;2023-04-22T10:10:37;100644.81;;;14.52;100.00
24788;BME280;12883;52.662;5.196;2023-04-22T10:13:04;100617.00;;;14.30;100.00
24788;BME280;12883;52.662;5.196;2023-04-22T10:15:41;100641.00;;;14.01;100.00
24788;BME280;12883;52.662;5.196;2023-04-22T10:18:13;100641.59;;;14.32;100.00
24788;BME280;12883;52.662;5.196;2023-04-22T10:20:41;100515.56;;;13.60;100.00
24788;BME280;12883;52.662;5.196;2023-04-22T10:23:16;100637.41;;;14.66;100.00
24788;BME280;12883;52.662;5.196;2023-04-22T10:25:46;100593.91;;;14.36;100.00
24788;BME280;12883;52.662;5.196;2023-04-22T10:28:14;100564.63;;;14.18;100.00
24788;BME280;12883;52.662;5.196;2023-04-22T10:30:40;100609.66;;;14.67;100.00
24788;BME280;12883;52.662;5.196;2023-04-22T10:36:09;100612.34;;;14.67;100.00
24788;BME280;12883;52.662;5.196;2023-04-22T10:41:01;100610.56;;;14.61;100.00
24788;BME280;12883;52.662;5.196;2023-04-22T10:43:54;100540.31;;;14.08;100.00
24788;BME280;12883;52.662;5.196;2023-04-22T10:49:10;100675.06;;;14.98;100.00
24788;BME280;12883;52.662;5.196;2023-04-22T10:51:49;100670.09;;;15.13;100.00
24788;BME280;12883;52.662;5.196;2023-04-22T10:57:07;100653.31;;;14.61;100.00
24788;BME280;12883;52.662;5.196;2023-04-22T10:59:46;100652.25;;;14.50;100.00
24788;BME280;12883;52.662;5.196;2023-04-22T11:02:16;100596.19;;;14.62;100.00
24788;BME280;12883;52.662;5.196;2023-04-22T11:04:41;100583.59;;;14.51;100.00
24788;BME280;12883;52.662;5.196;2023-04-22T11:09:49;100578.75;;;14.48;100.00
24788;BME280;12883;52.662;5.196;2023-04-22T11:17:32;100597.44;;;14.71;100.00
24788;BME280;12883;52.662;5.196;2023-04-22T11:19:58;100652.16;;;14.68;100.00
24788;BME280;12883;52.662;5.196;2023-04-22T11:22:24;100545.53;;;14.44;100.00
24788;BME280;12883;52.662;5.196;2023-04-22T11:24:56;100685.53;;;15.11;100.00
24788;BME280;12883;52.662;5.196;2023-04-22T11:27:23;100673.22;;;15.10;100.00
24788;BME280;12883;52.662;5.196;2023-04-22T11:30:00;100668.59;;;15.17;100.00
24788;BME280;12883;52.662;5.196;2023-04-22T11:32:27;100605.47;;;14.71;100.00
24788;BME280;12883;52.662;5.196;2023-04-22T11:34:53;100570.50;;;14.49;100.00
24788;BME280;12883;52.662;5.196;2023-04-22T11:37:18;100605.00;;;14.62;100.00
24788;BME280;12883;52.662;5.196;2023-04-22T11:39:44;100621.53;;;14.93;100.00
24788;BME280;12883;52.662;5.196;2023-04-22T11:42:11;100667.44;;;15.25;100.00
24788;BME280;12883;52.662;5.196;2023-04-22T11:44:38;100592.72;;;14.73;100.00
24788;BME280;12883;52.662;5.196;2023-04-22T11:47:03;100657.53;;;15.25;100.00
24788;BME280;12883;52.662;5.196;2023-04-22T11:49:28;100656.66;;;15.31;100.00
24788;BME280;12883;52.662;5.196;2023-04-22T11:51:57;100346.06;;;13.41;100.00
24788;BME280;12883;52.662;5.196;2023-04-22T11:54:49;100626.28;;;15.03;100.00
24788;BME280;12883;52.662;5.196;2023-04-22T11:57:14;100535.53;;;14.51;100.00
24788;BME280;12883;52.662;5.196;2023-04-22T11:59:42;100652.75;;;15.27;100.00
24788;BME280;12883;52.662;5.196;2023-04-22T12:02:07;100598.06;;;14.95;100.00
24788;BME280;12883;52.662;5.196;2023-04-22T12:04:38;100555.06;;;14.85;100.00
24788;BME280;12883;52.662;5.196;2023-04-22T12:07:04;100578.78;;;14.93;100.00
24788;BME280;12883;52.662;5.196;2023-04-22T12:09:29;100595.25;;;15.02;100.00
24788;BME280;12883;52.662;5.196;2023-04-22T12:11:55;100639.75;;;15.19;100.00
24788;BME280;12883;52.662;5.196;2023-04-22T12:14:27;100428.78;;;13.75;100.00
24788;BME280;12883;52.662;5.196;2023-04-22T12:16:55;100624.91;;;15.12;100.00
24788;BME280;12883;52.662;5.196;2023-04-22T12:19:25;100572.00;;;14.68;100.00
24788;BME280;12883;52.662;5.196;2023-04-22T12:21:54;100582.25;;;14.71;100.00
24788;BME280;12883;52.662;5.196;2023-04-22T12:24:26;100558.09;;;14.55;100.00
24788;BME280;12883;52.662;5.196;2023-04-22T12:26:52;100433.06;;;13.65;100.00
24788;BME280;12883;52.662;5.196;2023-04-22T12:29:26;100619.66;;;15.05;100.00
24788;BME280;12883;52.662;5.196;2023-04-22T12:31:52;100596.66;;;14.82;100.00
24788;BME280;12883;52.662;5.196;2023-04-22T12:34:17;100492.25;;;14.37;100.00
24788;BME280;12883;52.662;5.196;2023-04-22T12:36:42;100611.06;;;15.03;100.00
24788;BME280;12883;52.662;5.196;2023-04-22T12:39:08;100657.53;;;15.14;100.00
24788;BME280;12883;52.662;5.196;2023-04-22T12:41:34;100661.34;;;14.72;100.00
24788;BME280;12883;52.662;5.196;2023-04-22T12:44:00;100603.94;;;14.52;100.00
24788;BME280;12883;52.662;5.196;2023-04-22T12:46:25;100581.75;;;14.40;100.00
24788;BME280;12883;52.662;5.196;2023-04-22T12:48:51;100171.13;;;11.64;100.00
24788;BME280;12883;52.662;5.196;2023-04-22T12:51:16;100665.09;;;14.42;100.00
24788;BME280;12883;52.662;5.196;2023-04-22T12:53:42;100551.84;;;13.79;100.00
24788;BME280;12883;52.662;5.196;2023-04-22T12:56:07;100606.59;;;14.11;100.00
24788;BME280;12883;52.662;5.196;2023-04-22T12:58:32;100594.53;;;14.08;100.00
24788;BME280;12883;52.662;5.196;2023-04-22T13:00:58;100549.81;;;13.63;100.00